Time;durP1;ratioP1;P1;durP2;ratioP2;P2;SDS_P1;SDS_P2;PMS_P1;PMS_P2;Temp;Humidity;BMP_temperature;BMP_pressure;BME280_temperature;BME280_humidity;BME280_pressure;Samples;Min_cycle;Max_cycle;Signal;HPM_P1;HPM_P2
2021/05/21 00:09:43;;;;;;;0.20;0.10;;;15.80;99.90;;;;;;20620867;28;20207;-64
2021/05/21 00:19:46;;;;;;;6.57;0.73;;;15.70;99.90;;;;;;20621162;28;20223;-64
2021/05/21 00:29:50;;;;;;;0.77;0.70;;;15.90;99.90;;;;;;20618692;28;20273;-65
2021/05/21 00:39:54;;;;;;;0.20;0.10;;;15.80;99.90;;;;;;20618546;28;20270;-64
2021/05/21 00:49:57;;;;;;;0.33;0.23;;;15.70;99.90;;;;;;20586565;28;20635;-64
2021/05/21 01:00:01;;;;;;;0.20;0.10;;;15.70;99.90;;;;;;20619379;28;20235;-64
2021/05/21 01:10:05;;;;;;;0.20;0.10;;;15.90;99.90;;;;;;20584201;28;20201;-65
2021/05/21 01:20:12;;;;;;;0.30;0.30;;;15.90;99.90;;;;;;20541069;28;20650;-66
2021/05/21 01:30:18;;;;;;;0.30;0.20;;;15.60;99.90;;;;;;20538245;28;20196;-67
2021/05/21 01:40:24;;;;;;;2.73;0.47;;;15.50;99.90;;;;;;20538591;28;20227;-66
2021/05/21 01:50:28;;;;;;;0.27;0.23;;;15.50;99.90;;;;;;20536412;28;20275;-66
2021/05/21 02:00:31;;;;;;;4.47;1.40;;;15.50;99.90;;;;;;20537058;28;20232;-66
2021/05/21 02:10:35;;;;;;;6.87;0.60;;;15.40;99.90;;;;;;20563575;28;20202;-66
2021/05/21 02:20:39;;;;;;;0.87;0.40;;;15.80;99.90;;;;;;20533768;28;20363;-66
2021/05/21 02:30:44;;;;;;;0.20;0.10;;;16.10;99.90;;;;;;20534125;28;20600;-67
2021/05/21 02:40:47;;;;;;;1.93;0.70;;;16.30;99.90;;;;;;20533760;28;20228;-66
2021/05/21 02:50:51;;;;;;;1.10;0.40;;;16.40;99.90;;;;;;20533577;28;20267;-66
2021/05/21 03:00:54;;;;;;;0.20;0.00;;;16.40;99.90;;;;;;20531420;28;20232;-65
2021/05/21 03:10:58;;;;;;;0.53;0.30;;;16.10;99.90;;;;;;20571854;28;20588;-65
2021/05/21 03:21:02;;;;;;;0.20;0.10;;;15.80;99.90;;;;;;20611392;28;20219;-66
2021/05/21 03:31:06;;;;;;;0.20;0.20;;;15.90;99.90;;;;;;20595312;28;20211;-65
2021/05/21 03:41:10;;;;;;;0.20;0.10;;;16.60;99.90;;;;;;20603341;28;20338;-65
2021/05/21 03:51:15;;;;;;;0.20;0.20;;;16.80;99.90;;;;;;20609023;28;20202;-65
2021/05/21 04:01:18;;;;;;;0.53;0.30;;;16.90;99.90;;;;;;20611653;28;20239;-65
2021/05/21 04:11:22;;;;;;;0.57;0.57;;;16.80;99.90;;;;;;20602630;28;20214;-65
2021/05/21 04:21:25;;;;;;;0.30;0.30;;;16.70;99.90;;;;;;20624471;28;20219;-65
2021/05/21 04:31:29;;;;;;;0.20;0.17;;;16.60;99.90;;;;;;20616971;28;20649;-65
2021/05/21 04:41:33;;;;;;;0.20;0.20;;;16.60;99.90;;;;;;20620283;28;20579;-65
2021/05/21 04:51:37;;;;;;;0.30;0.10;;;16.50;99.90;;;;;;20602487;28;20187;-65
2021/05/21 05:01:40;;;;;;;0.77;0.60;;;16.50;99.90;;;;;;20621049;28;20239;-65
2021/05/21 05:11:45;;;;;;;0.40;0.23;;;16.60;99.90;;;;;;20571857;28;20204;-65
2021/05/21 05:21:48;;;;;;;0.20;0.20;;;16.70;99.90;;;;;;20519635;28;20298;-65
2021/05/21 05:31:53;;;;;;;0.20;0.17;;;16.80;99.90;;;;;;20537501;28;20214;-64
2021/05/21 05:41:56;;;;;;;0.73;0.43;;;16.70;99.90;;;;;;20517971;28;20224;-66
2021/05/21 05:52:00;;;;;;;0.23;0.23;;;16.80;99.90;;;;;;20518221;28;20202;-63
2021/05/21 06:02:03;;;;;;;0.67;0.57;;;17.00;99.90;;;;;;20532188;28;20232;-65
2021/05/21 06:12:09;;;;;;;1.37;0.83;;;17.10;99.90;;;;;;20567045;28;20195;-66
2021/05/21 06:22:13;;;;;;;0.40;0.40;;;17.40;99.90;;;;;;20610929;28;20793;-67
2021/05/21 06:32:17;;;;;;;0.27;0.23;;;18.00;99.90;;;;;;20577927;28;20876;-65
2021/05/21 06:42:20;;;;;;;0.53;0.23;;;18.30;99.90;;;;;;20607873;28;20829;-66
2021/05/21 06:52:25;;;;;;;0.40;0.40;;;18.50;99.90;;;;;;20590558;28;20203;-64
2021/05/21 07:02:29;;;;;;;1.17;0.57;;;18.40;99.90;;;;;;20603553;28;20626;-66
2021/05/21 07:12:33;;;;;;;0.30;0.20;;;18.60;99.90;;;;;;20549564;28;20193;-65
2021/05/21 07:22:38;;;;;;;0.77;0.77;;;18.40;99.90;;;;;;20505551;28;20224;-65
2021/05/21 07:32:42;;;;;;;0.27;0.27;;;18.80;99.90;;;;;;20526063;28;20415;-64
2021/05/21 07:42:45;;;;;;;0.37;0.30;;;18.60;99.90;;;;;;20535042;28;20581;-64
2021/05/21 07:52:53;;;;;;;2.53;1.17;;;18.70;99.90;;;;;;20542642;28;20678;-64
2021/05/21 08:02:56;;;;;;;1.03;0.77;;;18.90;99.90;;;;;;20505486;28;20262;-63
2021/05/21 08:13:03;;;;;;;0.40;0.20;;;19.20;99.90;;;;;;20578477;28;20219;-63
2021/05/21 08:23:07;;;;;;;2.63;0.30;;;19.60;99.90;;;;;;20501501;28;20223;-64
2021/05/21 08:33:13;;;;;;;0.50;0.50;;;19.20;99.90;;;;;;20520827;28;20208;-63
2021/05/21 08:43:16;;;;;;;0.20;0.10;;;18.90;99.90;;;;;;20455953;29;20580;-62
2021/05/21 08:53:20;;;;;;;1.50;0.77;;;19.00;99.90;;;;;;20450743;28;20233;-64
2021/05/21 09:03:25;;;;;;;0.20;0.10;;;18.90;99.90;;;;;;20454612;28;20245;-62
2021/05/21 09:13:35;;;;;;;0.63;0.63;;;18.80;99.90;;;;;;20512892;28;20204;-63
2021/05/21 09:23:38;;;;;;;2.00;0.40;;;19.30;99.90;;;;;;20532475;28;20625;-65
2021/05/21 09:33:45;;;;;;;0.40;0.40;;;19.10;99.90;;;;;;20513584;28;20658;-64
2021/05/21 09:43:51;;;;;;;0.20;0.00;;;19.10;99.90;;;;;;20513909;28;20223;-64
2021/05/21 09:54:01;;;;;;;0.87;0.17;;;19.40;99.90;;;;;;20529771;28;20207;-64
2021/05/21 10:04:08;;;;;;;1.37;0.93;;;20.40;99.90;;;;;;20505833;28;20771;-62
2021/05/21 10:14:12;;;;;;;0.40;0.37;;;20.60;99.90;;;;;;20528344;28;20498;-65
2021/05/21 10:24:19;;;;;;;0.27;0.23;;;20.70;99.90;;;;;;20526156;28;20234;-64
2021/05/21 10:34:23;;;;;;;3.80;0.73;;;20.70;99.90;;;;;;20528968;28;20279;-64
2021/05/21 10:44:28;;;;;;;0.53;0.53;;;21.50;99.90;;;;;;20527489;28;20768;-63
2021/05/21 10:54:33;;;;;;;14.00;0.93;;;21.30;99.90;;;;;;20525987;28;20199;-63
2021/05/21 11:04:37;;;;;;;1.20;1.10;;;22.00;99.90;;;;;;20509127;28;20236;-63
2021/05/21 11:14:43;;;;;;;2.20;0.60;;;22.20;99.90;;;;;;20514530;28;20743;-63
2021/05/21 11:24:48;;;;;;;0.90;0.60;;;22.70;99.90;;;;;;20542214;28;20228;-63
2021/05/21 11:34:53;;;;;;;0.90;0.60;;;23.80;99.90;;;;;;20541467;28;20196;-64
2021/05/21 11:44:58;;;;;;;0.20;0.13;;;23.80;99.90;;;;;;20540310;28;20578;-63
2021/05/21 11:55:02;;;;;;;1.52;0.57;;;24.30;99.90;;;;;;20537415;28;20207;-63
2021/05/21 12:05:07;;;;;;;0.20;0.10;;;25.10;99.90;;;;;;20541005;28;20350;-64
2021/05/21 12:15:12;;;;;;;2.78;0.28;;;25.00;99.90;;;;;;20534418;28;20199;-66
2021/05/21 12:25:18;;;;;;;0.38;0.38;;;25.20;99.90;;;;;;20536873;28;20236;-64
2021/05/21 12:35:35;;;;;;;1.80;0.95;;;25.80;99.90;;;;;;20535421;28;20207;-64
2021/05/21 12:45:53;;;;;;;0.35;0.28;;;26.50;99.90;;;;;;20513716;28;20223;-64
2021/05/21 12:55:57;;;;;;;4.70;1.20;;;27.00;99.90;;;;;;20496517;28;20238;-65
2021/05/21 13:06:01;;;;;;;0.40;0.28;;;27.40;99.90;;;;;;20526817;28;20266;-64
2021/05/21 13:16:05;;;;;;;5.45;1.05;;;26.90;99.90;;;;;;20531508;28;20279;-64
2021/05/21 13:26:08;;;;;;;0.20;0.10;;;27.10;99.90;;;;;;20535385;28;20228;-63
2021/05/21 13:36:12;;;;;;;0.50;0.50;;;26.80;99.90;;;;;;20531326;28;20192;-64
2021/05/21 13:46:15;;;;;;;3.10;0.50;;;27.00;99.90;;;;;;20514871;28;20674;-64
2021/05/21 13:56:19;;;;;;;0.80;0.20;;;27.50;99.90;;;;;;20529134;28;20200;-62
2021/05/21 14:06:23;;;;;;;11.57;1.20;;;27.40;99.90;;;;;;20514722;28;20228;-63
2021/05/21 14:16:27;;;;;;;0.20;0.20;;;27.70;99.90;;;;;;20491408;28;20193;-62
2021/05/21 14:26:32;;;;;;;0.20;0.10;;;28.20;99.90;;;;;;20446984;28;20232;-63
2021/05/21 14:36:36;;;;;;;0.63;0.63;;;28.70;99.90;;;;;;20470252;28;20200;-63
2021/05/21 14:46:44;;;;;;;0.52;0.52;;;28.10;99.90;;;;;;20506393;28;20231;-63
2021/05/21 14:56:48;;;;;;;0.30;0.15;;;27.50;99.90;;;;;;20526678;28;20233;-63
2021/05/21 15:06:51;;;;;;;2.08;0.40;;;28.40;99.90;;;;;;20523896;28;20228;-62
2021/05/21 15:17:05;;;;;;;3.60;1.25;;;29.00;99.90;;;;;;20524363;28;20305;-62
2021/05/21 15:27:08;;;;;;;0.20;0.10;;;27.60;99.90;;;;;;20510210;28;21040;-64
2021/05/21 15:37:14;;;;;;;0.20;0.15;;;26.70;99.90;;;;;;20490327;28;20218;-61
2021/05/21 15:47:17;;;;;;;2.67;0.45;;;25.70;99.90;;;;;;20505122;28;20234;-62
2021/05/21 15:57:35;;;;;;;1.85;0.75;;;26.10;99.90;;;;;;20506562;28;20263;-63
2021/05/21 16:07:38;;;;;;;3.92;0.63;;;25.70;99.90;;;;;;20520120;28;20323;-63
2021/05/21 16:17:43;;;;;;;0.30;0.25;;;26.20;99.90;;;;;;20536492;28;20729;-62
2021/05/21 16:27:46;;;;;;;0.45;0.13;;;25.90;99.90;;;;;;20537960;28;20852;-63
2021/05/21 16:37:50;;;;;;;0.50;0.43;;;25.50;99.90;;;;;;20535366;28;20230;-65
2021/05/21 16:47:53;;;;;;;1.77;0.95;;;25.40;99.90;;;;;;20518314;28;20220;-64
2021/05/21 16:57:57;;;;;;;2.15;0.70;;;23.80;99.90;;;;;;20519933;28;20679;-62
2021/05/21 17:08:01;;;;;;;1.42;0.65;;;24.70;99.90;;;;;;20534875;28;20238;-63
2021/05/21 18:10:29;;;;;;;0.33;0.33;;;23.60;99.90;;;;;;20558707;28;20306;-64
2021/05/21 19:02:05;;;;;;;0.30;0.20;;;19.10;99.90;;;;;;20608345;28;20363;-65
2021/05/21 19:12:17;;;;;;;3.60;0.70;;;19.20;99.90;;;;;;20605616;28;20297;-63
2021/05/21 19:22:21;;;;;;;0.20;0.10;;;19.10;99.90;;;;;;20605045;28;20227;-65
2021/05/21 19:32:26;;;;;;;2.60;0.97;;;19.40;99.90;;;;;;20607743;28;20202;-64
2021/05/21 20:03:54;;;;;;;0.20;0.20;;;18.90;99.90;;;;;;20607158;28;20341;-64
2021/05/21 20:13:57;;;;;;;0.40;0.20;;;18.80;99.90;;;;;;20534974;28;20200;-63
2021/05/21 20:24:04;;;;;;;0.43;0.43;;;18.80;99.90;;;;;;20539285;28;20698;-64
2021/05/21 20:34:51;;;;;;;0.53;0.53;;;18.70;99.90;;;;;;20589421;28;20191;-64
2021/05/21 21:05:55;;;;;;;0.57;0.57;;;18.80;99.90;;;;;;20601182;28;20231;-65
2021/05/21 21:16:04;;;;;;;8.30;0.77;;;18.90;99.90;;;;;;20458087;29;20453;-65
2021/05/21 22:07:51;;;;;;;16.43;0.50;;;18.40;99.90;;;;;;20529082;28;20582;-64
2021/05/21 22:18:08;;;;;;;0.53;0.53;;;18.50;99.90;;;;;;20534406;28;20196;-65
2021/05/21 22:28:14;;;;;;;0.50;0.50;;;17.90;99.90;;;;;;20513635;28;21079;-65
2021/05/21 22:38:23;;;;;;;0.57;0.27;;;18.00;99.90;;;;;;20570362;28;20664;-65
2021/05/21 22:48:27;;;;;;;1.43;0.20;;;18.00;99.90;;;;;;20612406;28;20583;-65
2021/05/21 22:58:31;;;;;;;0.40;0.23;;;17.50;99.90;;;;;;20609695;28;20196;-64
2021/05/21 23:08:35;;;;;;;3.60;0.60;;;17.70;99.90;;;;;;20587465;28;20252;-65
2021/05/21 23:18:39;;;;;;;0.57;0.53;;;18.20;99.90;;;;;;20527978;28;20278;-63
2021/05/21 23:28:44;;;;;;;0.20;0.20;;;17.60;99.90;;;;;;20529115;28;20243;-64
2021/05/21 23:38:47;;;;;;;1.27;1.17;;;17.80;99.90;;;;;;20572540;28;20219;-64
2021/05/21 23:48:51;;;;;;;0.60;0.60;;;18.00;99.90;;;;;;20607968;28;20313;-63
2021/05/21 23:58:54;;;;;;;0.50;0.50;;;18.20;99.90;;;;;;20606424;28;20203;-65
